createdAt,value
2023-05-11T00:01:29.574Z,101486.84
2023-05-11T00:03:57.791Z,101485.78
2023-05-11T00:06:25.814Z,101479.47
2023-05-11T00:08:53.723Z,101478.25
2023-05-11T00:11:21.512Z,101481.00
2023-05-11T00:13:49.425Z,101480.16
2023-05-11T00:16:18.979Z,101483.91
2023-05-11T00:18:46.842Z,101474.81
2023-05-11T00:21:14.680Z,101475.69
2023-05-11T00:23:42.421Z,101466.59
2023-05-11T00:26:10.278Z,101478.41
2023-05-11T00:28:38.679Z,101479.28
2023-05-11T00:31:06.685Z,101479.63
2023-05-11T00:33:35.955Z,101474.81
2023-05-11T00:36:05.233Z,101479.13
2023-05-11T00:38:32.966Z,101474.31
2023-05-11T00:41:00.718Z,101469.03
2023-05-11T00:43:28.538Z,101470.75
2023-05-11T00:45:56.626Z,101472.44
2023-05-11T00:48:24.554Z,101465.63
2023-05-11T00:50:53.667Z,101464.25
2023-05-11T00:53:21.749Z,101464.25
2023-05-11T00:55:49.716Z,101469.72
2023-05-11T00:58:17.775Z,101469.91
2023-05-11T01:00:47.906Z,101472.47
2023-05-11T01:03:19.051Z,101473.00
2023-05-11T01:05:51.344Z,101476.44
2023-05-11T01:08:28.772Z,101476.22
2023-05-11T01:11:03.962Z,101482.56
2023-05-11T01:13:35.935Z,101478.28
2023-05-11T01:16:13.579Z,101486.00
2023-05-11T01:18:47.885Z,101477.94
2023-05-11T01:21:19.859Z,101477.94
2023-05-11T01:24:21.322Z,101479.19
2023-05-11T01:27:07.966Z,101480.00
2023-05-11T01:30:03.235Z,101483.59
2023-05-11T01:32:36.451Z,101476.22
2023-05-11T01:35:09.611Z,101472.13
2023-05-11T01:37:39.977Z,101468.19
2023-05-11T01:40:14.710Z,101469.41
2023-05-11T01:42:45.821Z,101475.19
2023-05-11T01:45:15.537Z,101463.22
2023-05-11T01:47:46.254Z,101472.66
2023-05-11T01:50:16.833Z,101476.06
2023-05-11T01:52:46.797Z,101475.03
2023-05-11T01:55:18.163Z,101473.00
2023-05-11T01:57:46.617Z,101465.81
2023-05-11T02:00:17.897Z,101474.19
2023-05-11T02:02:49.268Z,101475.03
2023-05-11T02:05:25.099Z,101479.31
2023-05-11T02:07:55.608Z,101470.25
2023-05-11T02:10:27.392Z,101476.75
2023-05-11T02:12:56.720Z,101483.25
2023-05-11T02:15:27.097Z,101483.25
2023-05-11T02:17:57.723Z,101490.63
2023-05-11T02:20:26.885Z,101484.97
2023-05-11T02:22:55.750Z,101482.91
2023-05-11T02:25:24.541Z,101486.50
2023-05-11T02:27:52.563Z,101485.66
2023-05-11T02:30:20.744Z,101482.06
2023-05-11T02:32:52.980Z,101482.91
2023-05-11T02:35:26.526Z,101482.91
2023-05-11T02:37:58.960Z,101481.38
2023-05-11T02:40:33.101Z,101479.84
2023-05-11T02:43:09.069Z,101483.25
2023-05-11T02:45:40.123Z,101486.50
2023-05-11T02:48:14.089Z,101498.19
2023-05-11T02:50:44.439Z,101506.03
2023-05-11T02:53:17.322Z,101505.88
2023-05-11T02:55:47.134Z,101503.31
2023-05-11T02:58:15.815Z,101501.63
2023-05-11T03:00:48.296Z,101503.50
2023-05-11T03:03:16.468Z,101498.69
2023-05-11T03:05:45.817Z,101511.00
2023-05-11T03:08:13.791Z,101512.75
2023-05-11T03:10:42.641Z,101503.66
2023-05-11T03:13:11.185Z,101503.66
2023-05-11T03:15:39.912Z,101503.66
2023-05-11T03:18:08.759Z,101504.00
2023-05-11T03:20:38.674Z,101511.72
2023-05-11T03:23:09.025Z,101511.88
2023-05-11T03:25:37.773Z,101507.09
2023-05-11T03:28:06.963Z,101503.31
2023-05-11T03:30:36.540Z,101508.28
2023-05-11T03:33:04.902Z,101511.88
2023-05-11T03:35:35.873Z,101509.84
2023-05-11T03:38:07.428Z,101511.53
2023-05-11T03:40:35.444Z,101509.66
2023-05-11T03:43:05.203Z,101509.66
2023-05-11T03:45:35.434Z,101509.84
2023-05-11T03:48:07.414Z,101503.81
2023-05-11T03:50:35.613Z,101508.28
2023-05-11T03:53:04.484Z,101498.34
2023-05-11T03:55:34.105Z,101502.94
2023-05-11T03:58:04.273Z,101499.53
2023-05-11T04:00:32.624Z,101495.59
2023-05-11T04:03:05.455Z,101497.47
2023-05-11T04:05:36.098Z,101497.16
2023-05-11T04:08:07.486Z,101509.28
2023-05-11T04:10:38.272Z,101505.88
2023-05-11T04:13:06.409Z,101501.06
2023-05-11T04:15:35.406Z,101501.06
2023-05-11T04:18:04.403Z,101501.78
2023-05-11T04:20:33.368Z,101504.31
2023-05-11T04:23:01.127Z,101499.53
2023-05-11T04:25:28.957Z,101495.94
2023-05-11T04:27:58.189Z,101499.53
2023-05-11T04:30:26.455Z,101505.69
2023-05-11T04:32:54.932Z,101506.56
2023-05-11T04:35:23.753Z,101502.44
2023-05-11T04:37:51.608Z,101502.44
2023-05-11T04:40:20.050Z,101502.78
2023-05-11T04:42:48.775Z,101500.72
2023-05-11T04:45:21.550Z,101499.19
2023-05-11T04:47:49.442Z,101496.81
2023-05-11T04:50:18.057Z,101502.94
2023-05-11T04:52:46.074Z,101501.06
2023-05-11T04:55:13.889Z,101502.44
2023-05-11T04:57:41.897Z,101502.44
2023-05-11T05:00:10.981Z,101507.06
2023-05-11T05:02:40.225Z,101506.03
2023-05-11T05:05:09.151Z,101506.03
2023-05-11T05:07:37.215Z,101509.66
2023-05-11T05:10:08.942Z,101508.13
2023-05-11T05:12:37.912Z,101507.25
2023-05-11T05:15:07.127Z,101513.75
2023-05-11T05:17:36.763Z,101519.25
2023-05-11T05:20:08.733Z,101529.34
2023-05-11T05:22:36.657Z,101535.53
2023-05-11T05:25:05.158Z,101537.22
2023-05-11T05:27:34.918Z,101536.34
2023-05-11T05:30:07.829Z,101541.66
2023-05-11T05:32:35.784Z,101552.78
2023-05-11T05:35:04.310Z,101554.50
2023-05-11T05:37:33.728Z,101554.69
2023-05-11T05:40:01.786Z,101564.09
2023-05-11T05:42:30.241Z,101574.56
2023-05-11T05:44:58.155Z,101563.44
2023-05-11T05:47:25.948Z,101566.84
2023-05-11T05:49:53.846Z,101564.25
2023-05-11T05:52:21.757Z,101562.38
2023-05-11T05:54:51.973Z,101573.00
2023-05-11T05:57:20.521Z,101573.69
2023-05-11T05:59:48.801Z,101581.41
2023-05-11T06:02:19.546Z,101589.13
2023-05-11T06:04:47.518Z,101590.34
2023-05-11T06:07:17.850Z,101584.00
2023-05-11T06:09:45.675Z,101587.91
2023-05-11T06:12:14.881Z,101592.53
2023-05-11T06:14:46.613Z,101590.66
2023-05-11T06:17:14.612Z,101582.78
2023-05-11T06:19:42.590Z,101585.53
2023-05-11T06:22:10.843Z,101582.78
2023-05-11T06:24:39.014Z,101588.47
2023-05-11T06:27:06.911Z,101596.34
2023-05-11T06:29:36.664Z,101592.72
2023-05-11T06:32:06.212Z,101585.84
2023-05-11T06:34:35.506Z,101583.66
2023-05-11T06:37:04.207Z,101585.72
2023-05-11T06:39:32.060Z,101589.66
2023-05-11T06:42:03.528Z,101592.03
2023-05-11T06:44:32.817Z,101591.69
2023-05-11T06:47:02.008Z,101595.81
2023-05-11T06:49:30.034Z,101594.25
2023-05-11T06:51:58.027Z,101596.84
2023-05-11T06:54:25.884Z,101597.16
2023-05-11T06:56:53.656Z,101596.16
2023-05-11T06:59:21.481Z,101595.44
2023-05-11T07:01:49.430Z,101594.09
2023-05-11T07:04:18.639Z,101596.66
2023-05-11T07:06:46.520Z,101595.28
2023-05-11T07:09:14.434Z,101595.13
2023-05-11T07:11:42.466Z,101592.91
2023-05-11T07:14:10.440Z,101608.66
2023-05-11T07:16:38.609Z,101599.75
2023-05-11T07:19:08.448Z,101599.59
2023-05-11T07:21:37.887Z,101605.41
2023-05-11T07:24:06.156Z,101595.81
2023-05-11T07:26:34.145Z,101614.13
2023-05-11T07:29:02.285Z,101615.81
2023-05-11T07:31:30.322Z,101611.03
2023-05-11T07:33:58.234Z,101616.53
2023-05-11T07:36:26.534Z,101614.81
2023-05-11T07:38:55.774Z,101618.41
2023-05-11T07:41:26.763Z,101621.47
2023-05-11T07:43:54.772Z,101618.56
2023-05-11T07:46:22.957Z,101623.53
2023-05-11T07:48:57.457Z,101620.78
2023-05-11T07:51:31.993Z,101623.88
2023-05-11T07:54:01.284Z,101618.56
2023-05-11T07:56:29.155Z,101612.91
2023-05-11T07:58:56.920Z,101619.75
2023-05-11T08:01:24.765Z,101614.94
2023-05-11T08:03:52.608Z,101614.09
2023-05-11T08:06:20.469Z,101620.25
2023-05-11T08:08:48.473Z,101621.31
2023-05-11T08:11:17.664Z,101618.38
2023-05-11T08:13:45.534Z,101623.34
2023-05-11T08:16:13.368Z,101614.59
2023-05-11T08:18:41.329Z,101622.47
2023-05-11T08:21:09.301Z,101633.81
2023-05-11T08:23:37.757Z,101629.84
2023-05-11T08:26:06.632Z,101633.81
2023-05-11T08:28:35.846Z,101635.19
2023-05-11T08:31:03.812Z,101644.41
2023-05-11T08:33:38.131Z,101645.78
2023-05-11T08:36:08.132Z,101645.44
2023-05-11T08:38:36.449Z,101648.38
2023-05-11T08:41:04.952Z,101653.88
2023-05-11T08:43:36.037Z,101656.06
2023-05-11T08:46:07.493Z,101659.50
2023-05-11T08:48:36.236Z,101663.94
2023-05-11T08:51:04.642Z,101669.94
2023-05-11T08:53:33.746Z,101668.56
2023-05-11T08:56:05.975Z,101658.59
2023-05-11T08:58:37.654Z,101660.53
2023-05-11T09:01:06.661Z,101661.19
2023-05-11T09:03:37.721Z,101660.34
2023-05-11T09:06:08.372Z,101655.84
2023-05-11T09:08:39.531Z,101655.50
2023-05-11T09:11:07.990Z,101654.13
2023-05-11T09:13:37.704Z,101649.66
2023-05-11T09:16:11.323Z,101648.28
2023-05-11T09:18:48.738Z,101653.41
2023-05-11T09:21:17.609Z,101649.16
2023-05-11T09:23:45.662Z,101648.44
2023-05-11T09:26:16.951Z,101646.91
2023-05-11T09:29:07.585Z,101644.47
2023-05-11T09:31:40.191Z,101644.66
2023-05-11T09:34:19.421Z,101646.69
2023-05-11T09:36:48.817Z,101654.59
2023-05-11T09:42:18.830Z,101658.53
2023-05-11T09:44:48.772Z,101647.34
2023-05-11T09:47:22.509Z,101649.06
2023-05-11T09:49:51.242Z,101643.94
2023-05-11T09:52:21.098Z,101654.94
2023-05-11T09:54:51.609Z,101649.59
2023-05-11T09:57:26.906Z,101649.94
2023-05-11T09:59:57.751Z,101646.16
2023-05-11T10:02:27.826Z,101647.22
2023-05-11T10:04:57.901Z,101643.53
2023-05-11T10:07:29.769Z,101652.63
2023-05-11T10:09:59.301Z,101644.69
2023-05-11T10:12:28.375Z,101653.41
2023-05-11T10:15:03.812Z,101643.78
2023-05-11T10:17:32.615Z,101645.31
2023-05-11T10:20:01.841Z,101647.53
2023-05-11T10:22:34.232Z,101644.91
2023-05-11T10:25:05.980Z,101646.41
2023-05-11T10:27:34.528Z,101641.75
2023-05-11T10:30:05.043Z,101648.41
2023-05-11T10:32:37.452Z,101651.13
2023-05-11T10:35:07.881Z,101638.16
2023-05-11T10:37:36.627Z,101634.66
2023-05-11T10:40:05.592Z,101636.00
2023-05-11T10:42:51.558Z,101642.50
2023-05-11T10:45:24.070Z,101644.00
2023-05-11T10:48:12.900Z,101649.72
2023-05-11T10:51:01.767Z,101642.97
2023-05-11T10:53:47.548Z,101642.44
2023-05-11T10:56:27.488Z,101643.28
2023-05-11T10:59:16.047Z,101635.03
2023-05-11T11:01:46.417Z,101639.69
2023-05-11T11:04:15.450Z,101644.66
2023-05-11T11:06:44.953Z,101634.41
2023-05-11T11:09:14.643Z,101641.47
2023-05-11T11:11:46.046Z,101636.09
2023-05-11T11:14:15.289Z,101636.09
2023-05-11T11:17:21.943Z,101637.75
2023-05-11T11:19:51.181Z,101637.06
2023-05-11T11:22:46.811Z,101637.19
2023-05-11T11:25:17.045Z,101643.91
2023-05-11T11:28:00.108Z,101645.91
2023-05-11T11:30:30.548Z,101648.00
2023-05-11T11:33:32.367Z,101650.38
2023-05-11T11:36:01.671Z,101640.34
2023-05-11T11:38:32.421Z,101647.66
2023-05-11T11:41:00.357Z,101637.41
2023-05-11T11:43:30.288Z,101637.03
2023-05-11T11:45:59.692Z,101631.34
2023-05-11T11:48:32.251Z,101629.84
2023-05-11T11:51:06.567Z,101640.94
2023-05-11T11:54:05.031Z,101631.28
2023-05-11T11:56:43.881Z,101626.25
2023-05-11T11:59:15.587Z,101629.28
2023-05-11T12:01:45.504Z,101634.13
2023-05-11T12:04:41.994Z,101627.50
2023-05-11T12:07:11.674Z,101621.81
2023-05-11T12:09:41.345Z,101629.84
2023-05-11T12:12:11.273Z,101632.69
2023-05-11T12:14:42.766Z,101627.66
2023-05-11T12:17:15.978Z,101629.38
2023-05-11T12:19:45.467Z,101635.91
2023-05-11T12:22:16.406Z,101636.13
2023-05-11T12:24:45.029Z,101628.91
2023-05-11T12:27:12.927Z,101628.34
2023-05-11T12:29:41.406Z,101627.47
2023-05-11T12:32:12.998Z,101631.66
2023-05-11T12:34:40.951Z,101626.31
2023-05-11T12:37:09.508Z,101622.50
2023-05-11T12:39:39.638Z,101614.34
2023-05-11T12:42:07.836Z,101626.88
2023-05-11T12:44:36.362Z,101619.47
2023-05-11T12:47:04.936Z,101621.44
2023-05-11T12:49:33.108Z,101622.22
2023-05-11T12:52:08.680Z,101619.22
2023-05-11T12:54:40.091Z,101623.69
2023-05-11T12:57:09.449Z,101628.34
2023-05-11T12:59:38.998Z,101625.97
2023-05-11T13:02:17.294Z,101627.69
2023-05-11T13:04:46.694Z,101629.59
2023-05-11T13:07:24.432Z,101635.28
2023-05-11T13:09:58.934Z,101629.56
2023-05-11T13:12:28.919Z,101630.22
2023-05-11T13:15:08.092Z,101623.69
2023-05-11T13:17:37.793Z,101630.22
2023-05-11T13:20:19.884Z,101622.44
2023-05-11T13:22:49.339Z,101621.03
2023-05-11T13:25:21.021Z,101620.44
2023-05-11T13:27:49.410Z,101621.28
2023-05-11T13:30:17.505Z,101626.53
2023-05-11T13:32:45.378Z,101626.25
2023-05-11T13:35:13.430Z,101629.34
2023-05-11T13:37:41.414Z,101628.31
2023-05-11T13:40:10.672Z,101630.59
2023-05-11T13:42:39.924Z,101625.94
2023-05-11T13:45:09.227Z,101632.03
2023-05-11T13:47:37.504Z,101627.47
2023-05-11T13:50:06.407Z,101630.50
2023-05-11T13:52:34.361Z,101629.34
2023-05-11T13:55:03.911Z,101628.53
2023-05-11T13:57:31.959Z,101627.38
2023-05-11T14:00:01.214Z,101623.28
2023-05-11T14:02:39.459Z,101630.69
2023-05-11T14:05:08.649Z,101628.56
2023-05-11T14:07:47.231Z,101629.06
2023-05-11T14:10:19.883Z,101638.00
2023-05-11T14:12:47.721Z,101630.88
2023-05-11T14:15:17.340Z,101630.03
2023-05-11T14:17:45.449Z,101638.28
2023-05-11T14:20:14.566Z,101639.78
2023-05-11T14:22:42.571Z,101638.75
2023-05-11T14:25:10.707Z,101632.88
2023-05-11T14:27:39.413Z,101641.03
2023-05-11T14:30:08.988Z,101627.25
2023-05-11T14:32:38.309Z,101628.03
2023-05-11T14:35:07.100Z,101627.72
2023-05-11T14:37:35.624Z,101640.63
2023-05-11T14:40:03.824Z,101629.91
2023-05-11T14:42:31.808Z,101636.75
2023-05-11T14:44:59.809Z,101633.03
2023-05-11T14:47:27.767Z,101633.69
2023-05-11T14:49:56.906Z,101644.44
2023-05-11T14:52:24.772Z,101642.06
2023-05-11T14:54:52.886Z,101647.94
2023-05-11T14:57:20.948Z,101645.84
2023-05-11T14:59:58.840Z,101649.06
2023-05-11T15:02:27.518Z,101651.34
2023-05-11T15:04:56.933Z,101646.88
2023-05-11T15:07:24.803Z,101654.91
2023-05-11T15:09:52.804Z,101652.59
2023-05-11T15:12:20.590Z,101657.75
2023-05-11T15:14:48.574Z,101652.78
2023-05-11T15:17:19.378Z,101657.47
2023-05-11T15:19:47.350Z,101651.03
2023-05-11T15:22:17.636Z,101661.25
2023-05-11T15:24:45.642Z,101656.59
2023-05-11T15:27:13.541Z,101660.50
2023-05-11T15:29:41.471Z,101666.16
2023-05-11T15:32:09.594Z,101659.66
2023-05-11T15:34:47.491Z,101664.16
2023-05-11T15:37:27.741Z,101672.53
2023-05-11T15:39:55.569Z,101665.41
2023-05-11T15:42:23.430Z,101663.53
2023-05-11T15:44:51.315Z,101666.81
2023-05-11T15:47:20.468Z,101667.31
2023-05-11T15:49:48.380Z,101676.25
2023-05-11T15:52:16.402Z,101678.69
2023-05-11T15:54:45.923Z,101677.00
2023-05-11T15:57:14.121Z,101672.19
2023-05-11T15:59:42.322Z,101679.28
2023-05-11T16:02:10.699Z,101676.53
2023-05-11T16:04:38.880Z,101676.34
2023-05-11T16:07:07.087Z,101676.16
2023-05-11T16:09:34.985Z,101675.38
2023-05-11T16:12:04.478Z,101673.66
2023-05-11T16:14:32.415Z,101681.59
2023-05-11T16:17:01.734Z,101682.47
2023-05-11T16:19:30.074Z,101679.22
2023-05-11T16:21:58.323Z,101678.69
2023-05-11T16:24:26.933Z,101684.91
2023-05-11T16:26:54.765Z,101682.91
2023-05-11T16:29:25.777Z,101681.31
2023-05-11T16:31:54.681Z,101680.97
2023-05-11T16:34:22.556Z,101692.25
2023-05-11T16:36:50.602Z,101683.19
2023-05-11T16:39:18.609Z,101683.00
2023-05-11T16:41:46.525Z,101689.34
2023-05-11T16:44:14.539Z,101679.78
2023-05-11T16:46:43.874Z,101688.53
2023-05-11T16:49:11.862Z,101682.31
2023-05-11T16:51:39.887Z,101673.78
2023-05-11T16:54:08.120Z,101682.16
2023-05-11T16:56:36.345Z,101687.66
2023-05-11T16:59:04.400Z,101684.22
2023-05-11T17:01:32.279Z,101683.03
2023-05-11T17:04:01.477Z,101696.75
2023-05-11T17:06:29.439Z,101697.09
2023-05-11T17:08:57.192Z,101685.44
2023-05-11T17:11:25.537Z,101690.41
2023-05-11T17:13:53.311Z,101690.75
2023-05-11T17:16:21.169Z,101698.84
2023-05-11T17:18:49.180Z,101694.72
2023-05-11T17:21:18.501Z,101701.06
2023-05-11T17:23:46.273Z,101700.53
2023-05-11T17:26:14.302Z,101699.16
2023-05-11T17:28:42.559Z,101707.75
2023-05-11T17:31:12.317Z,101704.13
2023-05-11T17:33:41.214Z,101703.28
2023-05-11T17:36:10.303Z,101702.78
2023-05-11T17:38:39.695Z,101707.06
2023-05-11T17:41:08.149Z,101711.91
2023-05-11T17:43:37.847Z,101706.94
2023-05-11T17:46:06.024Z,101707.94
2023-05-11T17:48:34.226Z,101710.19
2023-05-11T17:51:02.447Z,101714.00
2023-05-11T17:53:30.231Z,101715.19
2023-05-11T17:56:01.126Z,101721.56
2023-05-11T17:58:29.076Z,101722.25
2023-05-11T18:00:56.838Z,101729.97
2023-05-11T18:03:24.813Z,101728.09
2023-05-11T18:05:53.323Z,101731.88
2023-05-11T18:08:21.220Z,101729.78
2023-05-11T18:10:49.122Z,101733.72
2023-05-11T18:13:18.462Z,101732.91
2023-05-11T18:15:46.402Z,101737.69
2023-05-11T18:18:14.501Z,101745.03
2023-05-11T18:20:45.307Z,101741.63
2023-05-11T18:23:13.812Z,101739.91
2023-05-11T18:25:43.828Z,101732.91
2023-05-11T18:28:11.778Z,101744.56
2023-05-11T18:30:41.005Z,101746.44
2023-05-11T18:33:09.059Z,101750.72
2023-05-11T18:35:39.028Z,101757.06
2023-05-11T18:38:07.468Z,101755.50
2023-05-11T18:40:36.109Z,101761.84
2023-05-11T18:43:04.256Z,101758.09
2023-05-11T18:45:33.935Z,101760.66
2023-05-11T18:48:03.674Z,101756.00
2023-05-11T18:50:31.595Z,101769.56
2023-05-11T18:52:59.483Z,101773.13
2023-05-11T18:55:30.950Z,101767.97
2023-05-11T18:58:00.328Z,101766.28
2023-05-11T19:00:28.445Z,101768.19
2023-05-11T19:02:56.645Z,101779.81
2023-05-11T19:05:25.900Z,101771.59
2023-05-11T19:07:53.854Z,101784.09
2023-05-11T19:10:23.921Z,101774.28
2023-05-11T19:12:52.049Z,101772.91
2023-05-11T19:15:20.119Z,101774.63
2023-05-11T19:17:47.977Z,101776.50
2023-05-11T19:20:16.021Z,101777.38
2023-05-11T19:22:46.009Z,101776.50
2023-05-11T19:25:14.060Z,101777.34
2023-05-11T19:27:41.828Z,101774.50
2023-05-11T19:30:10.643Z,101775.00
2023-05-11T19:32:39.229Z,101774.19
2023-05-11T19:35:07.726Z,101783.25
2023-05-11T19:37:35.589Z,101780.19
2023-05-11T19:40:43.092Z,101782.06
2023-05-11T19:42:53.745Z,101786.72
2023-05-11T19:45:21.866Z,101785.13
2023-05-11T19:47:49.705Z,101784.63
2023-05-11T19:50:19.808Z,101787.69
2023-05-11T19:52:48.915Z,101786.69
2023-05-11T19:55:18.195Z,101794.56
2023-05-11T19:57:46.092Z,101796.28
2023-05-11T20:00:14.342Z,101793.03
2023-05-11T20:02:42.320Z,101799.72
2023-05-11T20:05:10.866Z,101798.13
2023-05-11T20:07:38.855Z,101800.34
2023-05-11T20:10:08.823Z,101802.28
2023-05-11T20:12:40.049Z,101809.81
2023-05-11T20:15:09.907Z,101801.06
2023-05-11T20:17:39.386Z,101795.59
2023-05-11T20:20:08.608Z,101799.03
2023-05-11T20:22:37.328Z,101798.31
2023-05-11T20:25:09.605Z,101801.78
2023-05-11T20:27:47.089Z,101801.75
2023-05-11T20:30:15.560Z,101809.63
2023-05-11T20:34:06.767Z,101809.97
2023-05-11T20:35:31.526Z,101816.13
2023-05-11T20:37:59.361Z,101800.53
2023-05-11T20:40:27.328Z,101799.38
2023-05-11T20:42:56.694Z,101796.63
2023-05-11T20:45:24.803Z,101799.34
2023-05-11T20:47:52.817Z,101799.19
2023-05-11T20:50:21.635Z,101791.34
2023-05-11T20:52:49.518Z,101794.41
2023-05-11T20:55:17.678Z,101801.22
2023-05-11T20:57:45.834Z,101794.69
2023-05-11T21:00:17.679Z,101790.22
2023-05-11T21:02:46.839Z,101788.28
2023-05-11T21:05:14.981Z,101786.25
2023-05-11T21:07:43.773Z,101779.03
2023-05-11T21:10:12.791Z,101774.41
2023-05-11T21:12:40.760Z,101776.66
2023-05-11T21:15:09.611Z,101777.50
2023-05-11T21:17:41.292Z,101780.09
2023-05-11T21:20:10.307Z,101771.84
2023-05-11T21:22:38.414Z,101766.16
2023-05-11T21:25:07.528Z,101763.09
2023-05-11T21:27:35.494Z,101768.38
2023-05-11T21:30:03.879Z,101768.56
2023-05-11T21:32:32.461Z,101772.53
2023-05-11T21:35:01.792Z,101773.22
2023-05-11T21:37:33.511Z,101781.78
2023-05-11T21:40:01.452Z,101782.31
2023-05-11T21:42:34.234Z,101779.22
2023-05-11T21:45:02.138Z,101781.28
2023-05-11T21:47:33.159Z,101784.19
2023-05-11T21:50:02.570Z,101787.28
2023-05-11T21:52:30.693Z,101781.81
2023-05-11T21:54:58.466Z,101791.25
2023-05-11T21:57:26.392Z,101791.38
2023-05-11T21:59:54.298Z,101788.50
2023-05-11T22:02:22.208Z,101786.47
2023-05-11T22:04:50.645Z,101796.25
2023-05-11T22:07:19.905Z,101791.78
2023-05-11T22:09:47.586Z,101792.13
2023-05-11T22:12:15.438Z,101790.44
2023-05-11T22:14:43.187Z,101802.28
2023-05-11T22:17:11.773Z,101800.69
2023-05-11T22:19:40.197Z,101804.47
2023-05-11T22:22:08.136Z,101811.84
2023-05-11T22:24:37.783Z,101796.94
2023-05-11T22:27:05.587Z,101808.44
2023-05-11T22:29:33.386Z,101797.31
2023-05-11T22:32:01.263Z,101800.03
2023-05-11T22:34:29.141Z,101802.94
2023-05-11T22:36:56.942Z,101811.69
2023-05-11T22:39:24.783Z,101811.34
2023-05-11T22:41:54.409Z,101812.22
2023-05-11T22:44:22.362Z,101804.84
2023-05-11T22:46:50.723Z,101805.72
2023-05-11T22:49:18.607Z,101807.94
2023-05-11T22:51:46.356Z,101806.50
2023-05-11T22:54:15.933Z,101795.00
2023-05-11T22:56:44.054Z,101803.38
2023-05-11T22:59:13.625Z,101789.50
2023-05-11T23:01:41.584Z,101787.63
2023-05-11T23:04:09.648Z,101782.50
2023-05-11T23:06:38.305Z,101783.34
2023-05-11T23:09:06.197Z,101780.44
2023-05-11T23:11:34.010Z,101773.84
2023-05-11T23:14:03.617Z,101773.03
2023-05-11T23:16:32.788Z,101772.31
2023-05-11T23:19:02.589Z,101770.78
2023-05-11T23:21:30.416Z,101771.78
2023-05-11T23:23:58.161Z,101764.81
2023-05-11T23:26:26.030Z,101769.09
2023-05-11T23:28:53.849Z,101760.84
2023-05-11T23:31:21.927Z,101767.56
2023-05-11T23:33:51.336Z,101770.09
2023-05-11T23:36:19.198Z,101768.38
2023-05-11T23:38:46.949Z,101762.22
2023-05-11T23:41:14.805Z,101759.00
2023-05-11T23:43:42.860Z,101760.16
2023-05-11T23:46:12.775Z,101758.63
2023-05-11T23:48:43.705Z,101751.13
2023-05-11T23:51:13.213Z,101762.84
2023-05-11T23:53:41.281Z,101760.97
2023-05-11T23:56:09.412Z,101742.31
2023-05-11T23:58:37.233Z,101749.53
